TFM - Tactical Decision Aid
ID: Runway Winds: CIG/VIS Threshold:

KPIT - Pittsburgh Intl, PA, US

Updated at: 0104 UTC 12 May 2021
Latest TAF at: 2320 UTC 11 May 2021

TAF Board

Time0051Z 12/02Z 12/03Z 12/04Z 12/05Z 12/06Z 12/07Z 12/08Z 12/09Z 12/10Z 12/11Z 12/12Z 12/13Z 12/14Z>>
Type OBS PRVL PRVL PRVL PRVL PRVL PRVL PRVL PRVL PRVL PRVL PRVL PRVL PRVL
VIS 10 >6 >6 >6 >6 >6 >6 >6 >6 >6 >6 >6 >6 >6
CIG -- -- -- -- -- -- -- -- -- -- -- -- -- 100
Cover FEW SKC SKC SKC SKC SKC SKC SKC SKC SKC SKC SKC SKC BKN
FltCat VFR VFR VFR VFR VFR VFR VFR VFR VFR VFR VFR VFR VFR VFR
WX -- -- -- -- -- -- -- -- -- -- -- -- -- --
WDir 330 310 310 310 310 310 310 310 310 310 310 310 310 340
WSpd 8 7 7 7 7 7 7 7 7 7 7 7 7 11
WGst -- -- -- -- -- -- -- -- -- -- -- -- -- --

TDA Impact Legend

  None Marginal Slight Moderate High
Visibility (sm) >5 3≤X≤5 1≤X<3 0.5≤X<1 <0.5
Ceiling (100 ft) >30 10≤X≤30 4≤X<10 2≤X<4 <2
Wind Speed (kt) <15 15≤X<25 25≤X<30 ≥30
Wind Gust (kt) <15 15≤X<25 25≤X<35 ≥35
Weather No Wx Reported VCTS -TS,-FZRA TS,FZRA +TS,+FZRA
TAF
KPIT 112320Z 1200/1306 30010G17KT P6SM SCT060 SCT250
  FM120100 31007KT P6SM SKC
  FM121400 34011KT P6SM BKN100
  FM121900 34011G15KT P6SM SCT150
  FM122300 34010KT P6SM SCT150


METAR
KPIT 120051Z 33008KT 10SM FEW070 FEW250 08/M06 A3023 RMK AO2 SLP250 T00831056
KPIT 112351Z 32017G23KT 10SM FEW065 FEW250 09/M05 A3021 RMK AO2 SLP244 T00941050 10133 20094 53022
KPIT 112251Z 33013KT 10SM SCT065 SCT250 11/M03 A3019 RMK AO2 SLP233 T01111033
KPIT 112151Z 32014G25KT 10SM BKN070 BKN250 12/M04 A3016 RMK AO2 SLP224 T01171039

Radar Display
Forecast Discussion